AFR393 LFLC-LFPG
Flight info
| Callsign | AFR393 |
|---|---|
| Flight time | N/A |
| Altitude | 17000 |
| Route | MOU |
| Aircraft | E190/M-SDE3GILORVW/S |
Departure
| Time | 2026-05-05 23:11 |
|---|---|
| Airport | Clermont-Ferrand Auvergne airport (LFLC) |
Arrival
| Time | N/A |
|---|---|
| Airport | Charles de Gaulle International Airport (LFPG) |
| Time | Latitude | Longitude | Altitude | Speed | Heading |
|---|---|---|---|---|---|
| 2026-05-05 22:51 | 45.78913 | 3.15612 | 1080 ft | 0 kts | 352° |
| 2026-05-05 23:02 | 45.78908 | 3.15613 | 1080 ft | 2 kts | 353° |
| 2026-05-05 23:02 | 45.78893 | 3.15616 | 1080 ft | 2 kts | 353° |
| 2026-05-05 23:03 | 45.78878 | 3.15619 | 1080 ft | 2 kts | 352° |
| 2026-05-05 23:03 | 45.78863 | 3.15622 | 1080 ft | 2 kts | 353° |
| 2026-05-05 23:03 | 45.78849 | 3.15623 | 1080 ft | 2 kts | 24° |
| 2026-05-05 23:03 | 45.78839 | 3.15609 | 1080 ft | 1 kts | 75° |
| 2026-05-05 23:04 | 45.78838 | 3.15600 | 1080 ft | 1 kts | 87° |
| 2026-05-05 23:04 | 45.78838 | 3.15596 | 1080 ft | 0 kts | 83° |
| 2026-05-05 23:05 | 45.78838 | 3.15600 | 1080 ft | 1 kts | 83° |
| 2026-05-05 23:06 | 45.78842 | 3.15645 | 1080 ft | 7 kts | 83° |
| 2026-05-05 23:06 | 45.78853 | 3.15753 | 1079 ft | 13 kts | 81° |
| 2026-05-05 23:06 | 45.78865 | 3.15881 | 1078 ft | 13 kts | 89° |
| 2026-05-05 23:06 | 45.78869 | 3.16016 | 1077 ft | 14 kts | 82° |
| 2026-05-05 23:07 | 45.78889 | 3.16158 | 1075 ft | 15 kts | 75° |
| 2026-05-05 23:07 | 45.78908 | 3.16314 | 1074 ft | 17 kts | 84° |
| 2026-05-05 23:07 | 45.78931 | 3.16541 | 1071 ft | 25 kts | 82° |
| 2026-05-05 23:07 | 45.78954 | 3.16797 | 1069 ft | 26 kts | 86° |
| 2026-05-05 23:08 | 45.78982 | 3.17063 | 1066 ft | 27 kts | 81° |
| 2026-05-05 23:08 | 45.79010 | 3.17341 | 1064 ft | 28 kts | 82° |
| 2026-05-05 23:08 | 45.79037 | 3.17628 | 1061 ft | 29 kts | 81° |
| 2026-05-05 23:08 | 45.79060 | 3.17895 | 1059 ft | 25 kts | 89° |
| 2026-05-05 23:09 | 45.79049 | 3.18153 | 1057 ft | 26 kts | 94° |
| 2026-05-05 23:09 | 45.79038 | 3.18409 | 1055 ft | 26 kts | 93° |
| 2026-05-05 23:09 | 45.79026 | 3.18662 | 1054 ft | 24 kts | 93° |
| 2026-05-05 23:09 | 45.79017 | 3.18826 | 1054 ft | 10 kts | 102° |
| 2026-05-05 23:10 | 45.78971 | 3.18896 | 1053 ft | 10 kts | 168° |
| 2026-05-05 23:10 | 45.78887 | 3.18896 | 1053 ft | 13 kts | 192° |
| 2026-05-05 23:10 | 45.78853 | 3.18838 | 1053 ft | 6 kts | 260° |
| 2026-05-05 23:10 | 45.78806 | 3.18375 | 1055 ft | 84 kts | 262° |
| 2026-05-05 23:11 | 45.78694 | 3.17233 | 1065 ft | 145 kts | 261° |
| 2026-05-05 23:11 | 45.78536 | 3.15690 | 1454 ft | 162 kts | 262° |
| 2026-05-05 23:11 | 45.78666 | 3.14098 | 2179 ft | 172 kts | 300° |
| 2026-05-05 23:11 | 45.79611 | 3.12973 | 2809 ft | 194 kts | 336° |
| 2026-05-05 23:12 | 45.81031 | 3.12959 | 3403 ft | 221 kts | 11° |
| 2026-05-05 23:12 | 45.82603 | 3.13174 | 4013 ft | 240 kts | 351° |
| 2026-05-05 23:12 | 45.84342 | 3.13192 | 4759 ft | 259 kts | 360° |
| 2026-05-05 23:12 | 45.86208 | 3.13257 | 5606 ft | 272 kts | 357° |
| 2026-05-05 23:13 | 45.88108 | 3.13223 | 6589 ft | 279 kts | 356° |
| 2026-05-05 23:13 | 45.90048 | 3.13137 | 7624 ft | 282 kts | 355° |
| 2026-05-05 23:13 | 45.92001 | 3.13025 | 8606 ft | 286 kts | 355° |
| 2026-05-05 23:13 | 45.93979 | 3.12900 | 9528 ft | 291 kts | 355° |
| 2026-05-05 23:14 | 45.96026 | 3.12763 | 10396 ft | 297 kts | 356° |
| 2026-05-05 23:14 | 45.98113 | 3.12621 | 11160 ft | 307 kts | 356° |
| 2026-05-05 23:14 | 46.00297 | 3.12471 | 11859 ft | 318 kts | 356° |
| 2026-05-05 23:14 | 46.02533 | 3.12316 | 12532 ft | 329 kts | 356° |
| 2026-05-05 23:15 | 46.04813 | 3.12159 | 13297 ft | 336 kts | 356° |
| 2026-05-05 23:15 | 46.07167 | 3.11996 | 14146 ft | 340 kts | 356° |
| 2026-05-05 23:15 | 46.09544 | 3.11832 | 14979 ft | 344 kts | 356° |
| 2026-05-05 23:15 | 46.11929 | 3.11667 | 15780 ft | 348 kts | 356° |
| 2026-05-05 23:16 | 46.14393 | 3.11496 | 16562 ft | 353 kts | 356° |
| 2026-05-05 23:16 | 46.16864 | 3.11451 | 17255 ft | 360 kts | 7° |
| 2026-05-05 23:16 | 46.19253 | 3.12661 | 17940 ft | 366 kts | 32° |
| 2026-05-05 23:16 | 46.21340 | 3.14712 | 18721 ft | 369 kts | 34° |
| 2026-05-05 23:17 | 46.23472 | 3.16812 | 19457 ft | 374 kts | 34° |
| 2026-05-05 23:17 | 46.25644 | 3.18933 | 20166 ft | 380 kts | 34° |
| 2026-05-05 23:17 | 46.27836 | 3.21067 | 20769 ft | 378 kts | 34° |
| 2026-05-05 23:17 | 46.30061 | 3.23233 | 20855 ft | 394 kts | 34° |
| 2026-05-05 23:18 | 46.32372 | 3.25485 | 20878 ft | 410 kts | 34° |
| 2026-05-05 23:18 | 46.34788 | 3.27841 | 20871 ft | 413 kts | 34° |
| 2026-05-05 23:18 | 46.37192 | 3.30188 | 20869 ft | 411 kts | 34° |
| 2026-05-05 23:18 | 46.39539 | 3.32481 | 20867 ft | 411 kts | 34° |
| 2026-05-05 23:19 | 46.41922 | 3.34811 | 20867 ft | 410 kts | 34° |
| 2026-05-05 23:19 | 46.44255 | 3.37096 | 20867 ft | 410 kts | 34° |
| 2026-05-05 23:19 | 46.46617 | 3.39412 | 20867 ft | 409 kts | 34° |
| 2026-05-05 23:19 | 46.48967 | 3.41718 | 20869 ft | 409 kts | 34° |
| 2026-05-05 23:20 | 46.51342 | 3.44051 | 20870 ft | 410 kts | 34° |
| 2026-05-05 23:20 | 46.53694 | 3.46365 | 20869 ft | 409 kts | 34° |
| 2026-05-05 23:20 | 46.56062 | 3.48697 | 20863 ft | 409 kts | 34° |
| 2026-05-05 23:20 | 46.58395 | 3.50996 | 20864 ft | 409 kts | 34° |
| 2026-05-05 23:21 | 46.60735 | 3.53305 | 20867 ft | 409 kts | 34° |
| 2026-05-05 23:21 | 46.63098 | 3.55639 | 20861 ft | 408 kts | 34° |
| 2026-05-05 23:21 | 46.65438 | 3.57952 | 20859 ft | 408 kts | 34° |
| 2026-05-05 23:21 | 46.67793 | 3.60282 | 20860 ft | 408 kts | 34° |
| 2026-05-05 23:22 | 46.70193 | 3.62488 | 20871 ft | 409 kts | 23° |
| 2026-05-05 23:22 | 46.72924 | 3.63546 | 20906 ft | 410 kts | 7° |
| 2026-05-05 23:22 | 46.75740 | 3.64183 | 20870 ft | 408 kts | 7° |
| 2026-05-05 23:22 | 46.78575 | 3.64791 | 20865 ft | 411 kts | 6° |
| 2026-05-05 23:23 | 46.81481 | 3.65402 | 20874 ft | 432 kts | 7° |
| 2026-05-05 23:23 | 46.84506 | 3.66036 | 20866 ft | 439 kts | 7° |
| 2026-05-05 23:23 | 46.87565 | 3.66678 | 20866 ft | 438 kts | 7° |
| 2026-05-05 23:23 | 46.90564 | 3.67307 | 20865 ft | 438 kts | 7° |
| 2026-05-05 23:24 | 46.93589 | 3.67943 | 20863 ft | 437 kts | 7° |
| 2026-05-05 23:24 | 46.96623 | 3.68581 | 20866 ft | 437 kts | 7° |
| 2026-05-05 23:24 | 46.99616 | 3.69211 | 20865 ft | 437 kts | 7° |
| 2026-05-05 23:24 | 47.02643 | 3.69848 | 20866 ft | 437 kts | 7° |
| 2026-05-05 23:25 | 47.05650 | 3.70483 | 20863 ft | 436 kts | 7° |
| 2026-05-05 23:25 | 47.08610 | 3.71109 | 20865 ft | 436 kts | 7° |
| 2026-05-05 23:25 | 47.11649 | 3.71751 | 20858 ft | 436 kts | 7° |
| 2026-05-05 23:25 | 47.14647 | 3.72386 | 20857 ft | 435 kts | 7° |
| 2026-05-05 23:26 | 47.17597 | 3.73011 | 20852 ft | 436 kts | 7° |
| 2026-05-05 23:26 | 47.20617 | 3.73652 | 20850 ft | 435 kts | 7° |
| 2026-05-05 23:26 | 47.23568 | 3.74279 | 20854 ft | 436 kts | 7° |
| 2026-05-05 23:26 | 47.26544 | 3.74912 | 20855 ft | 436 kts | 7° |
| 2026-05-05 23:27 | 47.29555 | 3.75553 | 20853 ft | 436 kts | 7° |
| 2026-05-05 23:27 | 47.32581 | 3.76198 | 20853 ft | 435 kts | 7° |
| 2026-05-05 23:27 | 47.35576 | 3.76837 | 20849 ft | 434 kts | 7° |
| 2026-05-05 23:27 | 47.38561 | 3.77475 | 20847 ft | 435 kts | 7° |
| 2026-05-05 23:28 | 47.41575 | 3.78120 | 20848 ft | 435 kts | 7° |
| 2026-05-05 23:28 | 47.44575 | 3.78762 | 20841 ft | 435 kts | 7° |
| 2026-05-05 23:28 | 47.47586 | 3.79408 | 20852 ft | 435 kts | 7° |
| 2026-05-05 23:28 | 47.50569 | 3.80048 | 20842 ft | 434 kts | 7° |
| 2026-05-05 23:29 | 47.53546 | 3.80688 | 20841 ft | 435 kts | 7° |
| 2026-05-05 23:29 | 47.56570 | 3.81339 | 20840 ft | 434 kts | 7° |
| 2026-05-05 23:29 | 47.59559 | 3.81982 | 20837 ft | 434 kts | 7° |
| 2026-05-05 23:29 | 47.62530 | 3.82623 | 20834 ft | 434 kts | 7° |
| 2026-05-05 23:30 | 47.65559 | 3.83277 | 20831 ft | 433 kts | 7° |
| 2026-05-05 23:30 | 47.67542 | 3.83706 | 20831 ft | 433 kts | 7° |
| 2026-05-05 23:30 | 47.71503 | 3.84562 | 20829 ft | 433 kts | 7° |
| 2026-05-05 23:30 | 47.74513 | 3.85215 | 20828 ft | 433 kts | 7° |
| 2026-05-05 23:31 | 47.77510 | 3.85865 | 20825 ft | 433 kts | 7° |
| 2026-05-05 23:31 | 47.80488 | 3.86511 | 20825 ft | 433 kts | 7° |
| 2026-05-05 23:31 | 47.83454 | 3.87156 | 20825 ft | 432 kts | 7° |
| 2026-05-05 23:31 | 47.86462 | 3.87811 | 20820 ft | 432 kts | 7° |
| 2026-05-05 23:32 | 47.89458 | 3.88464 | 20825 ft | 432 kts | 7° |
| 2026-05-05 23:32 | 47.92406 | 3.89107 | 20828 ft | 433 kts | 7° |
| 2026-05-05 23:32 | 47.95409 | 3.89762 | 20556 ft | 434 kts | 7° |
| 2026-05-05 23:32 | 47.98375 | 3.90411 | 20094 ft | 433 kts | 7° |
| 2026-05-05 23:33 | 48.01345 | 3.91061 | 19619 ft | 432 kts | 7° |
| 2026-05-05 23:33 | 48.04353 | 3.91720 | 19139 ft | 433 kts | 7° |
| 2026-05-05 23:33 | 48.07256 | 3.92358 | 18657 ft | 411 kts | 7° |
| 2026-05-05 23:33 | 48.10012 | 3.92964 | 18227 ft | 394 kts | 7° |
| 2026-05-05 23:34 | 48.12674 | 3.93550 | 17787 ft | 379 kts | 7° |
| 2026-05-05 23:34 | 48.15249 | 3.94118 | 17371 ft | 365 kts | 7° |
| 2026-05-05 23:34 | 48.17726 | 3.94664 | 16973 ft | 353 kts | 7° |
| 2026-05-05 23:34 | 48.20095 | 3.95187 | 16589 ft | 342 kts | 7° |
| 2026-05-05 23:35 | 48.22434 | 3.95704 | 16211 ft | 331 kts | 7° |
| 2026-05-05 23:35 | 48.24690 | 3.95950 | 15861 ft | 321 kts | 349° |
| 2026-05-05 23:35 | 48.26750 | 3.94839 | 15827 ft | 316 kts | 332° |
| 2026-05-05 23:35 | 48.28706 | 3.93371 | 15846 ft | 320 kts | 331° |
| 2026-05-05 23:36 | 48.30701 | 3.91816 | 15848 ft | 323 kts | 330° |
| 2026-05-05 23:36 | 48.32706 | 3.90228 | 15587 ft | 325 kts | 330° |
| 2026-05-05 23:36 | 48.34666 | 3.88664 | 15252 ft | 323 kts | 330° |
| 2026-05-05 23:36 | 48.36662 | 3.87065 | 14882 ft | 320 kts | 330° |
| 2026-05-05 23:37 | 48.38613 | 3.85500 | 14538 ft | 317 kts | 329° |
| 2026-05-05 23:37 | 48.40524 | 3.83965 | 14200 ft | 316 kts | 329° |
| 2026-05-05 23:37 | 48.42457 | 3.82411 | 13871 ft | 313 kts | 329° |
| 2026-05-05 23:37 | 48.44384 | 3.80860 | 13816 ft | 311 kts | 329° |
| 2026-05-05 23:38 | 48.46290 | 3.79323 | 13807 ft | 312 kts | 329° |
| 2026-05-05 23:38 | 48.48194 | 3.77788 | 13814 ft | 313 kts | 329° |
| 2026-05-05 23:38 | 48.50126 | 3.76229 | 13810 ft | 313 kts | 329° |
| 2026-05-05 23:38 | 48.52044 | 3.74679 | 13803 ft | 313 kts | 329° |
| 2026-05-05 23:39 | 48.53839 | 3.72862 | 13545 ft | 310 kts | 309° |
| 2026-05-05 23:39 | 48.55096 | 3.70266 | 13332 ft | 306 kts | 301° |
| 2026-05-05 23:39 | 48.56287 | 3.67563 | 13063 ft | 304 kts | 301° |
| 2026-05-05 23:39 | 48.57445 | 3.64897 | 12792 ft | 302 kts | 300° |
| 2026-05-05 23:40 | 48.58593 | 3.62239 | 12503 ft | 300 kts | 300° |
| 2026-05-05 23:40 | 48.59728 | 3.59601 | 12187 ft | 299 kts | 300° |
| 2026-05-05 23:40 | 48.60851 | 3.56983 | 11859 ft | 297 kts | 300° |
| 2026-05-05 23:40 | 48.61969 | 3.54379 | 11812 ft | 293 kts | 300° |
| 2026-05-05 23:41 | 48.63086 | 3.51768 | 11806 ft | 295 kts | 300° |
| 2026-05-05 23:41 | 48.64200 | 3.49166 | 11802 ft | 296 kts | 300° |
| 2026-05-05 23:41 | 48.65321 | 3.46544 | 11805 ft | 297 kts | 300° |
| 2026-05-05 23:41 | 48.66459 | 3.43879 | 11800 ft | 297 kts | 301° |
| 2026-05-05 23:42 | 48.67576 | 3.41262 | 11796 ft | 296 kts | 300° |
| 2026-05-05 23:42 | 48.68689 | 3.38651 | 11792 ft | 296 kts | 301° |
| 2026-05-05 23:42 | 48.69807 | 3.36024 | 11799 ft | 296 kts | 301° |
| 2026-05-05 23:42 | 48.70952 | 3.33329 | 11823 ft | 320 kts | 300° |
| 2026-05-05 23:43 | 48.72225 | 3.30326 | 11822 ft | 348 kts | 300° |
| 2026-05-05 23:43 | 48.73568 | 3.27161 | 11809 ft | 355 kts | 300° |
| 2026-05-05 23:43 | 48.74891 | 3.24043 | 11800 ft | 355 kts | 300° |
| 2026-05-05 23:43 | 48.75466 | 3.22686 | 11797 ft | 355 kts | 300° |
| 2026-05-05 23:44 | 48.76442 | 3.20382 | 11799 ft | 355 kts | 300° |
| 2026-05-05 23:44 | 48.77773 | 3.17233 | 11796 ft | 355 kts | 301° |
| 2026-05-05 23:44 | 48.79054 | 3.14064 | 11793 ft | 354 kts | 292° |
| 2026-05-05 23:44 | 48.79622 | 3.10462 | 11853 ft | 353 kts | 277° |
| 2026-05-05 23:45 | 48.80160 | 3.06832 | 11850 ft | 353 kts | 283° |
| 2026-05-05 23:45 | 48.80810 | 3.03222 | 11834 ft | 353 kts | 284° |
| 2026-05-05 23:45 | 48.81485 | 2.99629 | 11770 ft | 354 kts | 284° |
| 2026-05-05 23:45 | 48.82167 | 2.96041 | 11725 ft | 353 kts | 284° |
| 2026-05-05 23:46 | 48.82849 | 2.92462 | 11667 ft | 352 kts | 284° |
| 2026-05-05 23:46 | 48.83523 | 2.88927 | 11610 ft | 352 kts | 285° |
| 2026-05-05 23:46 | 48.84210 | 2.85320 | 11553 ft | 351 kts | 284° |
| 2026-05-05 23:46 | 48.84880 | 2.81794 | 11498 ft | 351 kts | 285° |
| 2026-05-05 23:47 | 48.85557 | 2.78226 | 11434 ft | 350 kts | 284° |
| 2026-05-05 23:47 | 48.86229 | 2.74678 | 11353 ft | 350 kts | 284° |
| 2026-05-05 23:47 | 48.86904 | 2.71103 | 11318 ft | 351 kts | 284° |
| 2026-05-05 23:47 | 48.87570 | 2.67579 | 11230 ft | 350 kts | 284° |
| 2026-05-05 23:48 | 48.88237 | 2.64034 | 11176 ft | 351 kts | 284° |
| 2026-05-05 23:48 | 48.88916 | 2.60420 | 11121 ft | 352 kts | 284° |
| 2026-05-05 23:48 | 48.89587 | 2.56844 | 11067 ft | 351 kts | 284° |
| 2026-05-05 23:48 | 48.90252 | 2.53286 | 10816 ft | 355 kts | 284° |
| 2026-05-05 23:49 | 48.90918 | 2.49735 | 10156 ft | 328 kts | 284° |
| 2026-05-05 23:49 | 48.91472 | 2.46584 | 9837 ft | 299 kts | 277° |
| 2026-05-05 23:49 | 48.91434 | 2.43431 | 9602 ft | 295 kts | 267° |
| 2026-05-05 23:49 | 48.91289 | 2.40353 | 9231 ft | 288 kts | 267° |
| 2026-05-05 23:50 | 48.91133 | 2.37354 | 8906 ft | 280 kts | 267° |
| 2026-05-05 23:50 | 48.90972 | 2.34397 | 8592 ft | 280 kts | 266° |
| 2026-05-05 23:50 | 48.90812 | 2.31522 | 8297 ft | 286 kts | 266° |
| 2026-05-05 23:50 | 48.90646 | 2.28561 | 7989 ft | 288 kts | 266° |
| 2026-05-05 23:51 | 48.90540 | 2.26710 | 7798 ft | 283 kts | 266° |